Keene, NH (03431)

3:41 AM EDT on August 29, 2015 (GMT -0400)
Court St. | | Change Station
CLOSE
Current Station
Personal Weather Station
Location: Keene, NH
Elevation: 522 ft
Nearby Weather Stations

Elev 522 ft 42.94 °N, 72.29 °W | Updated 6 minutes ago

Mostly Cloudy
Mostly Cloudy
51.3 °F
Feels Like 51.3 °F
N
0.0
Wind Variable Wind from SW

Today
High -- | Low -- °F
--% Chance of Precip.
Yesterday
High -- | Low -- °F
Precip. -- in
6:10 AM 7:29 PM
Full, 100% visible
Pressure 30.19 in
Visibility 0.2 miles
Clouds Overcast 200 ft
Dew Point 49 °F
Humidity 91%
Rainfall 0.00 in
Snow Depth Not available.
UV 0 out of 12
Pollen 7.80 out of 12
Air Quality Not available.
Flu Activity Not available.
METAR KEEN 290735Z AUTO 00000KT 1/4SM OVC002 12/09 A3019 RMK AO1
Pressure 30.19 in
Visibility 0.2 miles
Clouds Overcast 200 ft
Dew Point 49 °F
Humidity 91%
Rainfall 0.00 in
Snow Depth Not available.
UV 0 out of 12
Pollen 7.80 out of 12
Air Quality Not available.
Flu Activity Not available.
METAR KEEN 290735Z AUTO 00000KT 1/4SM OVC002 12/09 A3019 RMK AO1

10-Day Weather Forecast

×

Almanac

Astronomy

Aug. 29, 2015 Rise Set
Actual Time
Civil Twilight
Nautical Twilight
Astronomical Twilight
Moon
Length of Visible Light
Length of Day
Tomorrow will be .
, % of the Moon is Illuminated

Today's Extremes

State Highs State Lows

Community

WunderPhotos

Upload Photos

1,850,634 photos uploaded!

WunderBlogs® & News

Nearby

Air Quality

  Air Quality AQ Index Pollutant
Not available.

Snow Depth

Station Depth Elevation

Earthquake Activity

City Distance Mag. Time & Date
Minimum magnitude displayed is 2.5.

Coastal Water Temperatures

Place Temperature

Stations

Nearby Weather Stations

Station Location Temp. Windchill Dew Point Humidity Wind Precip. Elev Updated Type